sensor_id;sensor_type;location;lat;lon;timestamp;P1;durP1;ratioP1;P2;durP2;ratioP2
54177;SDS011;40085;53.004;6.770;2022-10-26T00:01:12;9.32;;;3.10;;
54177;SDS011;40085;53.004;6.770;2022-10-26T00:03:39;5.43;;;3.22;;
54177;SDS011;40085;53.004;6.770;2022-10-26T00:06:25;7.35;;;3.67;;
54177;SDS011;40085;53.004;6.770;2022-10-26T00:08:54;4.82;;;3.28;;
54177;SDS011;40085;53.004;6.770;2022-10-26T00:11:21;7.32;;;3.38;;
54177;SDS011;40085;53.004;6.770;2022-10-26T00:13:47;6.32;;;3.22;;
54177;SDS011;40085;53.004;6.770;2022-10-26T00:16:17;5.78;;;3.70;;
54177;SDS011;40085;53.004;6.770;2022-10-26T00:18:45;5.40;;;3.40;;
54177;SDS011;40085;53.004;6.770;2022-10-26T00:21:11;4.72;;;3.00;;
54177;SDS011;40085;53.004;6.770;2022-10-26T00:23:37;6.90;;;3.13;;
54177;SDS011;40085;53.004;6.770;2022-10-26T00:26:03;5.63;;;3.40;;
54177;SDS011;40085;53.004;6.770;2022-10-26T00:28:29;5.10;;;2.70;;
54177;SDS011;40085;53.004;6.770;2022-10-26T00:30:59;5.63;;;3.13;;
54177;SDS011;40085;53.004;6.770;2022-10-26T00:33:26;7.65;;;3.08;;
54177;SDS011;40085;53.004;6.770;2022-10-26T00:35:52;8.52;;;3.50;;
54177;SDS011;40085;53.004;6.770;2022-10-26T00:38:18;6.40;;;3.58;;
54177;SDS011;40085;53.004;6.770;2022-10-26T00:40:44;6.60;;;3.47;;
54177;SDS011;40085;53.004;6.770;2022-10-26T00:43:13;4.70;;;3.05;;
54177;SDS011;40085;53.004;6.770;2022-10-26T00:45:59;4.63;;;2.97;;
54177;SDS011;40085;53.004;6.770;2022-10-26T00:48:27;5.40;;;3.38;;
54177;SDS011;40085;53.004;6.770;2022-10-26T00:50:58;4.72;;;3.35;;
54177;SDS011;40085;53.004;6.770;2022-10-26T00:53:26;4.85;;;2.83;;
54177;SDS011;40085;53.004;6.770;2022-10-26T00:55:53;6.00;;;3.53;;
54177;SDS011;40085;53.004;6.770;2022-10-26T00:58:20;6.35;;;3.80;;
54177;SDS011;40085;53.004;6.770;2022-10-26T01:00:48;4.35;;;2.97;;
54177;SDS011;40085;53.004;6.770;2022-10-26T01:03:15;5.85;;;3.00;;
54177;SDS011;40085;53.004;6.770;2022-10-26T01:05:41;9.15;;;3.22;;
54177;SDS011;40085;53.004;6.770;2022-10-26T01:08:08;6.00;;;3.05;;
54177;SDS011;40085;53.004;6.770;2022-10-26T01:10:35;6.35;;;3.25;;
54177;SDS011;40085;53.004;6.770;2022-10-26T01:13:02;7.13;;;3.50;;
54177;SDS011;40085;53.004;6.770;2022-10-26T01:15:37;5.90;;;3.10;;
54177;SDS011;40085;53.004;6.770;2022-10-26T01:38:39;8.10;;;3.95;;
54177;SDS011;40085;53.004;6.770;2022-10-26T01:41:27;9.13;;;4.00;;
54177;SDS011;40085;53.004;6.770;2022-10-26T01:44:05;7.18;;;4.15;;
54177;SDS011;40085;53.004;6.770;2022-10-26T01:46:35;9.60;;;4.68;;
54177;SDS011;40085;53.004;6.770;2022-10-26T01:49:07;6.40;;;3.70;;
54177;SDS011;40085;53.004;6.770;2022-10-26T01:51:34;6.97;;;3.78;;
54177;SDS011;40085;53.004;6.770;2022-10-26T01:54:02;6.13;;;3.70;;
54177;SDS011;40085;53.004;6.770;2022-10-26T01:56:28;8.20;;;4.45;;
54177;SDS011;40085;53.004;6.770;2022-10-26T02:01:32;7.43;;;4.70;;
54177;SDS011;40085;53.004;6.770;2022-10-26T02:07:32;7.63;;;4.25;;
54177;SDS011;40085;53.004;6.770;2022-10-26T02:12:56;9.57;;;4.65;;
54177;SDS011;40085;53.004;6.770;2022-10-26T02:15:37;6.28;;;4.00;;
54177;SDS011;40085;53.004;6.770;2022-10-26T02:18:07;11.50;;;3.92;;
54177;SDS011;40085;53.004;6.770;2022-10-26T02:20:43;7.63;;;3.88;;
54177;SDS011;40085;53.004;6.770;2022-10-26T02:23:13;6.65;;;4.30;;
54177;SDS011;40085;53.004;6.770;2022-10-26T02:25:44;9.65;;;5.20;;
54177;SDS011;40085;53.004;6.770;2022-10-26T02:28:20;8.90;;;4.32;;
54177;SDS011;40085;53.004;6.770;2022-10-26T02:30:51;11.30;;;4.38;;
54177;SDS011;40085;53.004;6.770;2022-10-26T02:33:21;10.00;;;4.53;;
54177;SDS011;40085;53.004;6.770;2022-10-26T02:35:51;8.55;;;4.45;;
54177;SDS011;40085;53.004;6.770;2022-10-26T02:38:18;7.30;;;4.40;;
54177;SDS011;40085;53.004;6.770;2022-10-26T02:40:48;8.40;;;4.57;;
54177;SDS011;40085;53.004;6.770;2022-10-26T02:43:16;11.73;;;5.00;;
54177;SDS011;40085;53.004;6.770;2022-10-26T02:45:48;9.80;;;4.43;;
54177;SDS011;40085;53.004;6.770;2022-10-26T02:48:18;8.27;;;4.53;;
54177;SDS011;40085;53.004;6.770;2022-10-26T02:50:52;7.28;;;4.38;;
54177;SDS011;40085;53.004;6.770;2022-10-26T02:56:10;6.93;;;3.83;;
54177;SDS011;40085;53.004;6.770;2022-10-26T02:58:51;10.43;;;5.57;;
54177;SDS011;40085;53.004;6.770;2022-10-26T03:01:19;9.38;;;4.90;;
54177;SDS011;40085;53.004;6.770;2022-10-26T03:03:46;10.15;;;4.85;;
54177;SDS011;40085;53.004;6.770;2022-10-26T03:06:18;8.38;;;4.60;;
54177;SDS011;40085;53.004;6.770;2022-10-26T03:08:45;10.80;;;4.57;;
54177;SDS011;40085;53.004;6.770;2022-10-26T03:11:10;8.73;;;5.25;;
54177;SDS011;40085;53.004;6.770;2022-10-26T03:13:36;10.73;;;5.82;;
54177;SDS011;40085;53.004;6.770;2022-10-26T03:16:02;7.25;;;4.60;;
54177;SDS011;40085;53.004;6.770;2022-10-26T03:18:27;12.18;;;5.45;;
54177;SDS011;40085;53.004;6.770;2022-10-26T03:20:53;9.75;;;4.75;;
54177;SDS011;40085;53.004;6.770;2022-10-26T03:23:19;11.23;;;5.18;;
54177;SDS011;40085;53.004;6.770;2022-10-26T03:25:44;7.10;;;4.68;;
54177;SDS011;40085;53.004;6.770;2022-10-26T03:28:10;9.38;;;5.28;;
54177;SDS011;40085;53.004;6.770;2022-10-26T03:30:36;8.25;;;4.60;;
54177;SDS011;40085;53.004;6.770;2022-10-26T03:33:01;9.68;;;4.65;;
54177;SDS011;40085;53.004;6.770;2022-10-26T03:35:27;8.23;;;4.78;;
54177;SDS011;40085;53.004;6.770;2022-10-26T03:37:53;7.65;;;4.90;;
54177;SDS011;40085;53.004;6.770;2022-10-26T03:40:18;9.65;;;5.60;;
54177;SDS011;40085;53.004;6.770;2022-10-26T03:42:44;8.25;;;4.65;;
54177;SDS011;40085;53.004;6.770;2022-10-26T03:45:10;11.63;;;5.55;;
54177;SDS011;40085;53.004;6.770;2022-10-26T03:47:42;11.05;;;5.50;;
54177;SDS011;40085;53.004;6.770;2022-10-26T03:50:09;9.68;;;5.13;;
54177;SDS011;40085;53.004;6.770;2022-10-26T03:52:36;9.50;;;4.55;;
54177;SDS011;40085;53.004;6.770;2022-10-26T03:55:02;8.18;;;4.90;;
54177;SDS011;40085;53.004;6.770;2022-10-26T03:57:28;9.90;;;5.28;;
54177;SDS011;40085;53.004;6.770;2022-10-26T03:59:53;7.32;;;4.65;;
54177;SDS011;40085;53.004;6.770;2022-10-26T04:02:19;9.07;;;5.38;;
54177;SDS011;40085;53.004;6.770;2022-10-26T04:04:45;7.88;;;4.80;;
54177;SDS011;40085;53.004;6.770;2022-10-26T04:07:10;12.00;;;5.78;;
54177;SDS011;40085;53.004;6.770;2022-10-26T04:09:36;7.85;;;4.95;;
54177;SDS011;40085;53.004;6.770;2022-10-26T04:12:01;10.85;;;5.20;;
54177;SDS011;40085;53.004;6.770;2022-10-26T04:14:27;10.02;;;5.30;;
54177;SDS011;40085;53.004;6.770;2022-10-26T04:16:53;7.85;;;5.05;;
54177;SDS011;40085;53.004;6.770;2022-10-26T04:19:18;10.15;;;5.30;;
54177;SDS011;40085;53.004;6.770;2022-10-26T04:21:44;9.23;;;5.45;;
54177;SDS011;40085;53.004;6.770;2022-10-26T04:24:10;8.23;;;5.07;;
54177;SDS011;40085;53.004;6.770;2022-10-26T04:26:35;9.90;;;5.75;;
54177;SDS011;40085;53.004;6.770;2022-10-26T04:29:01;16.13;;;5.70;;
54177;SDS011;40085;53.004;6.770;2022-10-26T04:31:31;11.20;;;5.45;;
54177;SDS011;40085;53.004;6.770;2022-10-26T04:33:57;12.00;;;5.30;;
54177;SDS011;40085;53.004;6.770;2022-10-26T04:36:22;12.65;;;5.20;;
54177;SDS011;40085;53.004;6.770;2022-10-26T04:38:48;11.57;;;5.68;;
54177;SDS011;40085;53.004;6.770;2022-10-26T04:41:14;9.07;;;4.47;;
54177;SDS011;40085;53.004;6.770;2022-10-26T04:43:40;8.55;;;5.15;;
54177;SDS011;40085;53.004;6.770;2022-10-26T04:46:05;11.02;;;5.72;;
54177;SDS011;40085;53.004;6.770;2022-10-26T04:48:31;10.90;;;5.60;;
54177;SDS011;40085;53.004;6.770;2022-10-26T04:50:57;8.95;;;5.20;;
54177;SDS011;40085;53.004;6.770;2022-10-26T04:53:23;9.07;;;5.28;;
54177;SDS011;40085;53.004;6.770;2022-10-26T04:55:54;8.52;;;5.22;;
54177;SDS011;40085;53.004;6.770;2022-10-26T04:58:21;9.52;;;5.50;;
54177;SDS011;40085;53.004;6.770;2022-10-26T05:00:46;10.50;;;5.28;;
54177;SDS011;40085;53.004;6.770;2022-10-26T05:03:12;10.82;;;5.72;;
54177;SDS011;40085;53.004;6.770;2022-10-26T05:05:38;11.30;;;5.90;;
54177;SDS011;40085;53.004;6.770;2022-10-26T05:08:03;13.55;;;5.80;;
54177;SDS011;40085;53.004;6.770;2022-10-26T05:10:29;10.65;;;5.82;;
54177;SDS011;40085;53.004;6.770;2022-10-26T05:12:56;9.52;;;5.35;;
54177;SDS011;40085;53.004;6.770;2022-10-26T05:15:23;7.10;;;4.60;;
54177;SDS011;40085;53.004;6.770;2022-10-26T05:17:55;11.50;;;5.85;;
54177;SDS011;40085;53.004;6.770;2022-10-26T05:20:22;7.53;;;4.85;;
54177;SDS011;40085;53.004;6.770;2022-10-26T05:25:19;13.38;;;5.25;;
54177;SDS011;40085;53.004;6.770;2022-10-26T05:27:45;6.78;;;4.30;;
54177;SDS011;40085;53.004;6.770;2022-10-26T05:30:11;10.60;;;5.43;;
54177;SDS011;40085;53.004;6.770;2022-10-26T05:32:36;10.30;;;4.70;;
54177;SDS011;40085;53.004;6.770;2022-10-26T05:35:02;11.10;;;5.00;;
54177;SDS011;40085;53.004;6.770;2022-10-26T05:37:28;8.65;;;5.13;;
54177;SDS011;40085;53.004;6.770;2022-10-26T05:39:54;9.48;;;4.50;;
54177;SDS011;40085;53.004;6.770;2022-10-26T05:42:20;9.77;;;6.05;;
54177;SDS011;40085;53.004;6.770;2022-10-26T05:44:45;8.23;;;4.50;;
54177;SDS011;40085;53.004;6.770;2022-10-26T05:47:11;10.88;;;5.47;;
54177;SDS011;40085;53.004;6.770;2022-10-26T05:49:37;7.88;;;4.63;;
54177;SDS011;40085;53.004;6.770;2022-10-26T05:52:02;12.82;;;5.43;;
54177;SDS011;40085;53.004;6.770;2022-10-26T05:54:29;7.97;;;4.35;;
54177;SDS011;40085;53.004;6.770;2022-10-26T05:56:55;8.50;;;5.22;;
54177;SDS011;40085;53.004;6.770;2022-10-26T05:59:21;9.55;;;5.22;;
54177;SDS011;40085;53.004;6.770;2022-10-26T06:04:25;9.05;;;4.22;;
54177;SDS011;40085;53.004;6.770;2022-10-26T06:07:00;9.40;;;4.63;;
54177;SDS011;40085;53.004;6.770;2022-10-26T06:09:26;9.95;;;5.00;;
54177;SDS011;40085;53.004;6.770;2022-10-26T06:11:52;14.35;;;4.97;;
54177;SDS011;40085;53.004;6.770;2022-10-26T06:14:18;7.45;;;4.43;;
54177;SDS011;40085;53.004;6.770;2022-10-26T06:25:31;6.85;;;4.45;;
54177;SDS011;40085;53.004;6.770;2022-10-26T06:30:45;7.90;;;4.43;;
54177;SDS011;40085;53.004;6.770;2022-10-26T06:33:11;7.63;;;4.20;;
54177;SDS011;40085;53.004;6.770;2022-10-26T06:38:10;5.93;;;4.00;;
54177;SDS011;40085;53.004;6.770;2022-10-26T06:40:41;8.32;;;4.30;;
54177;SDS011;40085;53.004;6.770;2022-10-26T06:43:09;5.25;;;3.47;;
54177;SDS011;40085;53.004;6.770;2022-10-26T06:45:38;6.35;;;3.90;;
54177;SDS011;40085;53.004;6.770;2022-10-26T06:48:09;9.02;;;4.35;;
54177;SDS011;40085;53.004;6.770;2022-10-26T06:51:14;7.72;;;3.60;;
54177;SDS011;40085;53.004;6.770;2022-10-26T06:53:37;5.03;;;3.55;;
54177;SDS011;40085;53.004;6.770;2022-10-26T06:56:12;6.43;;;3.60;;
54177;SDS011;40085;53.004;6.770;2022-10-26T06:58:38;6.97;;;3.78;;
54177;SDS011;40085;53.004;6.770;2022-10-26T07:01:05;7.00;;;3.92;;
54177;SDS011;40085;53.004;6.770;2022-10-26T07:03:31;6.82;;;3.53;;
54177;SDS011;40085;53.004;6.770;2022-10-26T07:05:57;8.93;;;4.55;;
54177;SDS011;40085;53.004;6.770;2022-10-26T07:08:22;5.60;;;3.47;;
54177;SDS011;40085;53.004;6.770;2022-10-26T07:10:48;7.43;;;3.53;;
54177;SDS011;40085;53.004;6.770;2022-10-26T07:13:14;6.38;;;3.45;;
54177;SDS011;40085;53.004;6.770;2022-10-26T07:15:39;5.30;;;3.50;;
54177;SDS011;40085;53.004;6.770;2022-10-26T07:18:07;6.07;;;3.97;;
54177;SDS011;40085;53.004;6.770;2022-10-26T07:20:39;6.35;;;3.33;;
54177;SDS011;40085;53.004;6.770;2022-10-26T07:23:06;4.47;;;3.05;;
54177;SDS011;40085;53.004;6.770;2022-10-26T07:25:35;7.25;;;3.15;;
54177;SDS011;40085;53.004;6.770;2022-10-26T07:28:04;4.45;;;3.08;;
54177;SDS011;40085;53.004;6.770;2022-10-26T07:30:30;8.25;;;3.28;;
54177;SDS011;40085;53.004;6.770;2022-10-26T07:33:00;7.90;;;3.20;;
54177;SDS011;40085;53.004;6.770;2022-10-26T07:35:26;5.93;;;3.22;;
54177;SDS011;40085;53.004;6.770;2022-10-26T07:37:54;6.38;;;3.53;;
54177;SDS011;40085;53.004;6.770;2022-10-26T07:40:21;6.50;;;3.55;;
54177;SDS011;40085;53.004;6.770;2022-10-26T07:42:47;6.47;;;2.97;;
54177;SDS011;40085;53.004;6.770;2022-10-26T07:45:12;5.82;;;3.15;;
54177;SDS011;40085;53.004;6.770;2022-10-26T07:47:38;6.85;;;3.33;;
54177;SDS011;40085;53.004;6.770;2022-10-26T07:50:04;5.50;;;3.15;;
54177;SDS011;40085;53.004;6.770;2022-10-26T07:52:30;6.32;;;3.03;;
54177;SDS011;40085;53.004;6.770;2022-10-26T07:54:56;5.55;;;3.30;;
54177;SDS011;40085;53.004;6.770;2022-10-26T07:57:22;5.55;;;2.85;;
54177;SDS011;40085;53.004;6.770;2022-10-26T07:59:48;5.05;;;2.80;;
54177;SDS011;40085;53.004;6.770;2022-10-26T08:02:13;5.72;;;3.15;;
54177;SDS011;40085;53.004;6.770;2022-10-26T08:04:39;5.50;;;3.08;;
54177;SDS011;40085;53.004;6.770;2022-10-26T08:07:05;5.55;;;3.35;;
54177;SDS011;40085;53.004;6.770;2022-10-26T08:09:30;4.70;;;2.67;;
54177;SDS011;40085;53.004;6.770;2022-10-26T08:11:56;6.20;;;3.47;;
54177;SDS011;40085;53.004;6.770;2022-10-26T08:14:21;4.63;;;3.10;;
54177;SDS011;40085;53.004;6.770;2022-10-26T08:16:47;3.95;;;2.78;;
54177;SDS011;40085;53.004;6.770;2022-10-26T08:19:16;4.53;;;3.13;;
54177;SDS011;40085;53.004;6.770;2022-10-26T08:21:42;4.95;;;3.28;;
54177;SDS011;40085;53.004;6.770;2022-10-26T08:24:08;5.25;;;3.25;;
54177;SDS011;40085;53.004;6.770;2022-10-26T08:26:34;7.97;;;2.72;;
54177;SDS011;40085;53.004;6.770;2022-10-26T08:28:59;3.90;;;2.75;;
54177;SDS011;40085;53.004;6.770;2022-10-26T08:31:25;4.03;;;2.22;;
54177;SDS011;40085;53.004;6.770;2022-10-26T08:33:51;6.03;;;2.50;;
54177;SDS011;40085;53.004;6.770;2022-10-26T08:36:19;5.38;;;2.47;;
54177;SDS011;40085;53.004;6.770;2022-10-26T08:38:48;5.65;;;2.70;;
54177;SDS011;40085;53.004;6.770;2022-10-26T08:41:14;7.55;;;3.10;;
54177;SDS011;40085;53.004;6.770;2022-10-26T08:43:41;5.53;;;2.42;;
54177;SDS011;40085;53.004;6.770;2022-10-26T08:46:15;3.45;;;2.63;;
54177;SDS011;40085;53.004;6.770;2022-10-26T08:48:46;4.32;;;2.30;;
54177;SDS011;40085;53.004;6.770;2022-10-26T08:51:18;3.95;;;2.53;;
54177;SDS011;40085;53.004;6.770;2022-10-26T08:56:24;3.28;;;2.10;;
54177;SDS011;40085;53.004;6.770;2022-10-26T09:01:25;2.92;;;1.85;;
54177;SDS011;40085;53.004;6.770;2022-10-26T09:03:51;4.72;;;2.67;;
54177;SDS011;40085;53.004;6.770;2022-10-26T09:06:22;6.80;;;3.15;;
54177;SDS011;40085;53.004;6.770;2022-10-26T09:09:20;9.07;;;3.95;;
54177;SDS011;40085;53.004;6.770;2022-10-26T09:14:47;3.03;;;2.30;;
54177;SDS011;40085;53.004;6.770;2022-10-26T09:20:27;3.50;;;1.90;;
54177;SDS011;40085;53.004;6.770;2022-10-26T09:25:58;5.35;;;1.92;;
54177;SDS011;40085;53.004;6.770;2022-10-26T09:28:26;3.13;;;1.60;;
54177;SDS011;40085;53.004;6.770;2022-10-26T09:30:57;2.97;;;1.75;;
54177;SDS011;40085;53.004;6.770;2022-10-26T09:33:25;7.97;;;2.08;;
54177;SDS011;40085;53.004;6.770;2022-10-26T09:35:51;3.10;;;1.63;;
54177;SDS011;40085;53.004;6.770;2022-10-26T09:40:56;3.70;;;2.05;;
54177;SDS011;40085;53.004;6.770;2022-10-26T09:43:31;2.65;;;1.55;;
54177;SDS011;40085;53.004;6.770;2022-10-26T09:46:04;2.65;;;1.50;;
54177;SDS011;40085;53.004;6.770;2022-10-26T09:48:32;5.28;;;2.42;;
54177;SDS011;40085;53.004;6.770;2022-10-26T09:51:03;2.72;;;1.80;;
54177;SDS011;40085;53.004;6.770;2022-10-26T09:53:29;2.75;;;1.80;;
54177;SDS011;40085;53.004;6.770;2022-10-26T09:56:05;2.28;;;1.60;;
54177;SDS011;40085;53.004;6.770;2022-10-26T09:58:34;5.18;;;1.35;;
54177;SDS011;40085;53.004;6.770;2022-10-26T10:01:20;3.67;;;1.60;;
54177;SDS011;40085;53.004;6.770;2022-10-26T10:04:09;6.95;;;1.80;;
54177;SDS011;40085;53.004;6.770;2022-10-26T10:06:41;2.65;;;1.42;;
54177;SDS011;40085;53.004;6.770;2022-10-26T10:09:15;3.50;;;1.73;;
54177;SDS011;40085;53.004;6.770;2022-10-26T10:11:52;1.63;;;1.15;;
54177;SDS011;40085;53.004;6.770;2022-10-26T10:14:27;2.78;;;1.13;;
54177;SDS011;40085;53.004;6.770;2022-10-26T10:16:59;3.80;;;1.58;;
54177;SDS011;40085;53.004;6.770;2022-10-26T10:19:27;2.38;;;1.48;;
54177;SDS011;40085;53.004;6.770;2022-10-26T10:21:59;2.55;;;1.35;;
54177;SDS011;40085;53.004;6.770;2022-10-26T10:25:01;2.47;;;1.25;;
54177;SDS011;40085;53.004;6.770;2022-10-26T10:27:27;4.90;;;1.65;;
54177;SDS011;40085;53.004;6.770;2022-10-26T10:29:54;5.03;;;1.38;;
54177;SDS011;40085;53.004;6.770;2022-10-26T10:32:22;3.80;;;1.15;;
54177;SDS011;40085;53.004;6.770;2022-10-26T10:34:53;2.38;;;1.27;;
54177;SDS011;40085;53.004;6.770;2022-10-26T10:37:24;2.35;;;1.38;;
54177;SDS011;40085;53.004;6.770;2022-10-26T10:40:21;4.18;;;1.25;;
54177;SDS011;40085;53.004;6.770;2022-10-26T10:42:50;4.68;;;1.73;;
54177;SDS011;40085;53.004;6.770;2022-10-26T10:50:51;2.30;;;1.08;;
54177;SDS011;40085;53.004;6.770;2022-10-26T10:55:59;3.17;;;1.10;;
54177;SDS011;40085;53.004;6.770;2022-10-26T10:58:43;2.88;;;1.35;;
54177;SDS011;40085;53.004;6.770;2022-10-26T11:01:28;4.78;;;1.58;;
54177;SDS011;40085;53.004;6.770;2022-10-26T11:06:30;4.57;;;1.20;;
54177;SDS011;40085;53.004;6.770;2022-10-26T11:11:37;1.98;;;1.20;;
54177;SDS011;40085;53.004;6.770;2022-10-26T11:14:16;1.33;;;0.90;;
54177;SDS011;40085;53.004;6.770;2022-10-26T11:16:44;2.67;;;1.10;;
54177;SDS011;40085;53.004;6.770;2022-10-26T11:19:21;3.63;;;1.27;;
54177;SDS011;40085;53.004;6.770;2022-10-26T11:21:52;3.20;;;1.23;;
54177;SDS011;40085;53.004;6.770;2022-10-26T11:26:49;2.13;;;1.27;;
54177;SDS011;40085;53.004;6.770;2022-10-26T11:40:17;2.05;;;1.00;;
54177;SDS011;40085;53.004;6.770;2022-10-26T11:43:13;1.27;;;1.00;;
54177;SDS011;40085;53.004;6.770;2022-10-26T11:46:34;6.63;;;1.33;;
54177;SDS011;40085;53.004;6.770;2022-10-26T11:51:11;5.97;;;1.10;;
54177;SDS011;40085;53.004;6.770;2022-10-26T11:54:02;2.88;;;1.20;;
54177;SDS011;40085;53.004;6.770;2022-10-26T11:56:44;2.20;;;1.15;;
54177;SDS011;40085;53.004;6.770;2022-10-26T11:59:17;7.43;;;1.27;;
54177;SDS011;40085;53.004;6.770;2022-10-26T12:01:59;3.10;;;1.13;;
54177;SDS011;40085;53.004;6.770;2022-10-26T12:04:30;2.78;;;1.08;;
54177;SDS011;40085;53.004;6.770;2022-10-26T12:06:59;1.60;;;1.10;;
54177;SDS011;40085;53.004;6.770;2022-10-26T12:09:32;2.25;;;1.33;;
54177;SDS011;40085;53.004;6.770;2022-10-26T12:12:03;1.63;;;1.10;;
54177;SDS011;40085;53.004;6.770;2022-10-26T12:17:05;2.05;;;1.25;;
54177;SDS011;40085;53.004;6.770;2022-10-26T12:22:19;1.65;;;1.08;;
54177;SDS011;40085;53.004;6.770;2022-10-26T12:25:38;1.40;;;0.88;;
54177;SDS011;40085;53.004;6.770;2022-10-26T12:35:03;2.15;;;1.20;;
54177;SDS011;40085;53.004;6.770;2022-10-26T12:38:00;2.08;;;1.10;;
54177;SDS011;40085;53.004;6.770;2022-10-26T12:40:46;3.35;;;1.33;;
54177;SDS011;40085;53.004;6.770;2022-10-26T12:45:39;3.75;;;1.58;;
54177;SDS011;40085;53.004;6.770;2022-10-26T12:48:43;1.88;;;1.08;;
54177;SDS011;40085;53.004;6.770;2022-10-26T12:51:55;4.05;;;1.35;;
54177;SDS011;40085;53.004;6.770;2022-10-26T12:56:41;2.40;;;1.30;;
54177;SDS011;40085;53.004;6.770;2022-10-26T12:59:17;5.53;;;1.35;;
54177;SDS011;40085;53.004;6.770;2022-10-26T13:05:01;4.07;;;1.50;;
54177;SDS011;40085;53.004;6.770;2022-10-26T13:07:48;2.65;;;1.33;;
54177;SDS011;40085;53.004;6.770;2022-10-26T13:10:19;3.13;;;1.40;;
54177;SDS011;40085;53.004;6.770;2022-10-26T13:12:48;6.88;;;1.58;;
54177;SDS011;40085;53.004;6.770;2022-10-26T13:18:07;2.40;;;1.00;;
54177;SDS011;40085;53.004;6.770;2022-10-26T13:28:43;2.80;;;1.30;;
54177;SDS011;40085;53.004;6.770;2022-10-26T13:36:44;2.08;;;1.30;;
54177;SDS011;40085;53.004;6.770;2022-10-26T13:41:54;2.17;;;1.05;;
54177;SDS011;40085;53.004;6.770;2022-10-26T13:47:07;2.28;;;1.55;;
54177;SDS011;40085;53.004;6.770;2022-10-26T13:49:40;1.83;;;0.93;;
54177;SDS011;40085;53.004;6.770;2022-10-26T13:52:16;2.88;;;1.35;;
54177;SDS011;40085;53.004;6.770;2022-10-26T13:54:49;2.95;;;1.27;;
54177;SDS011;40085;53.004;6.770;2022-10-26T13:57:41;2.35;;;1.30;;
54177;SDS011;40085;53.004;6.770;2022-10-26T14:00:15;3.13;;;1.40;;
54177;SDS011;40085;53.004;6.770;2022-10-26T14:02:46;6.00;;;1.55;;
54177;SDS011;40085;53.004;6.770;2022-10-26T14:05:13;2.47;;;1.15;;
54177;SDS011;40085;53.004;6.770;2022-10-26T14:10:06;4.28;;;1.65;;
54177;SDS011;40085;53.004;6.770;2022-10-26T14:13:13;4.10;;;1.25;;
54177;SDS011;40085;53.004;6.770;2022-10-26T14:15:42;2.75;;;1.17;;
54177;SDS011;40085;53.004;6.770;2022-10-26T14:18:16;7.25;;;1.73;;
54177;SDS011;40085;53.004;6.770;2022-10-26T14:20:55;2.33;;;1.42;;
54177;SDS011;40085;53.004;6.770;2022-10-26T14:23:25;4.38;;;1.17;;
54177;SDS011;40085;53.004;6.770;2022-10-26T14:25:58;3.80;;;1.48;;
54177;SDS011;40085;53.004;6.770;2022-10-26T14:28:25;2.45;;;1.50;;
54177;SDS011;40085;53.004;6.770;2022-10-26T14:30:52;3.75;;;1.45;;
54177;SDS011;40085;53.004;6.770;2022-10-26T14:33:19;6.55;;;1.77;;
54177;SDS011;40085;53.004;6.770;2022-10-26T14:35:50;4.95;;;1.52;;
54177;SDS011;40085;53.004;6.770;2022-10-26T14:38:18;5.18;;;1.70;;
54177;SDS011;40085;53.004;6.770;2022-10-26T14:40:54;5.90;;;1.90;;
54177;SDS011;40085;53.004;6.770;2022-10-26T14:43:22;3.40;;;1.80;;
54177;SDS011;40085;53.004;6.770;2022-10-26T14:45:49;3.42;;;1.70;;
54177;SDS011;40085;53.004;6.770;2022-10-26T14:48:24;3.05;;;1.75;;
54177;SDS011;40085;53.004;6.770;2022-10-26T14:50:58;2.97;;;1.95;;
54177;SDS011;40085;53.004;6.770;2022-10-26T14:53:28;5.35;;;3.17;;
54177;SDS011;40085;53.004;6.770;2022-10-26T14:55:59;4.45;;;2.42;;
54177;SDS011;40085;53.004;6.770;2022-10-26T14:58:27;5.53;;;2.45;;
54177;SDS011;40085;53.004;6.770;2022-10-26T15:03:59;3.38;;;1.52;;
54177;SDS011;40085;53.004;6.770;2022-10-26T15:06:38;3.58;;;1.70;;
54177;SDS011;40085;53.004;6.770;2022-10-26T15:09:05;3.47;;;1.92;;
54177;SDS011;40085;53.004;6.770;2022-10-26T15:11:51;4.22;;;2.30;;
54177;SDS011;40085;53.004;6.770;2022-10-26T15:14:16;3.67;;;1.75;;
54177;SDS011;40085;53.004;6.770;2022-10-26T15:16:49;3.80;;;2.28;;
54177;SDS011;40085;53.004;6.770;2022-10-26T15:19:18;5.55;;;2.20;;
54177;SDS011;40085;53.004;6.770;2022-10-26T15:21:48;4.07;;;2.20;;
54177;SDS011;40085;53.004;6.770;2022-10-26T15:27:03;2.78;;;2.05;;
54177;SDS011;40085;53.004;6.770;2022-10-26T15:35:14;4.68;;;2.25;;
54177;SDS011;40085;53.004;6.770;2022-10-26T15:37:47;2.83;;;1.90;;
54177;SDS011;40085;53.004;6.770;2022-10-26T15:40:14;4.72;;;2.33;;
54177;SDS011;40085;53.004;6.770;2022-10-26T15:42:40;3.90;;;2.22;;
54177;SDS011;40085;53.004;6.770;2022-10-26T15:47:46;4.60;;;2.47;;
54177;SDS011;40085;53.004;6.770;2022-10-26T15:50:14;7.82;;;2.70;;
54177;SDS011;40085;53.004;6.770;2022-10-26T15:52:42;6.38;;;2.15;;
54177;SDS011;40085;53.004;6.770;2022-10-26T15:55:08;4.90;;;2.22;;
54177;SDS011;40085;53.004;6.770;2022-10-26T15:57:34;8.07;;;2.13;;
54177;SDS011;40085;53.004;6.770;2022-10-26T16:00:00;4.53;;;2.10;;
54177;SDS011;40085;53.004;6.770;2022-10-26T16:02:26;3.88;;;2.45;;
54177;SDS011;40085;53.004;6.770;2022-10-26T16:04:52;3.67;;;2.50;;
54177;SDS011;40085;53.004;6.770;2022-10-26T16:07:18;4.82;;;2.42;;
54177;SDS011;40085;53.004;6.770;2022-10-26T16:09:45;3.63;;;2.08;;
54177;SDS011;40085;53.004;6.770;2022-10-26T16:12:11;2.92;;;2.10;;
54177;SDS011;40085;53.004;6.770;2022-10-26T16:14:37;5.07;;;2.40;;
54177;SDS011;40085;53.004;6.770;2022-10-26T16:17:04;3.50;;;2.20;;
54177;SDS011;40085;53.004;6.770;2022-10-26T16:19:31;2.95;;;2.10;;
54177;SDS011;40085;53.004;6.770;2022-10-26T16:21:58;5.20;;;2.20;;
54177;SDS011;40085;53.004;6.770;2022-10-26T16:24:25;2.25;;;1.60;;
54177;SDS011;40085;53.004;6.770;2022-10-26T16:26:54;4.65;;;2.20;;
54177;SDS011;40085;53.004;6.770;2022-10-26T16:29:20;3.70;;;2.05;;
54177;SDS011;40085;53.004;6.770;2022-10-26T16:31:46;6.05;;;2.22;;
54177;SDS011;40085;53.004;6.770;2022-10-26T16:34:12;5.88;;;2.10;;
54177;SDS011;40085;53.004;6.770;2022-10-26T16:36:38;4.75;;;1.90;;
54177;SDS011;40085;53.004;6.770;2022-10-26T16:39:04;5.47;;;1.98;;
54177;SDS011;40085;53.004;6.770;2022-10-26T16:41:30;2.50;;;1.75;;
54177;SDS011;40085;53.004;6.770;2022-10-26T16:43:57;3.13;;;1.70;;
54177;SDS011;40085;53.004;6.770;2022-10-26T16:46:23;2.38;;;1.80;;
54177;SDS011;40085;53.004;6.770;2022-10-26T16:48:49;2.35;;;1.55;;
54177;SDS011;40085;53.004;6.770;2022-10-26T16:53:45;3.17;;;1.75;;
54177;SDS011;40085;53.004;6.770;2022-10-26T16:56:13;4.63;;;2.50;;
54177;SDS011;40085;53.004;6.770;2022-10-26T16:58:40;2.78;;;1.88;;
54177;SDS011;40085;53.004;6.770;2022-10-26T17:01:06;5.00;;;2.03;;
54177;SDS011;40085;53.004;6.770;2022-10-26T17:03:33;3.50;;;2.03;;
54177;SDS011;40085;53.004;6.770;2022-10-26T17:06:00;3.58;;;2.13;;
54177;SDS011;40085;53.004;6.770;2022-10-26T17:08:27;3.00;;;1.85;;
54177;SDS011;40085;53.004;6.770;2022-10-26T17:10:53;3.80;;;1.90;;
54177;SDS011;40085;53.004;6.770;2022-10-26T17:13:25;2.90;;;2.08;;
54177;SDS011;40085;53.004;6.770;2022-10-26T17:15:51;3.65;;;2.25;;
54177;SDS011;40085;53.004;6.770;2022-10-26T17:18:17;3.45;;;2.13;;
54177;SDS011;40085;53.004;6.770;2022-10-26T17:20:49;3.65;;;2.03;;
54177;SDS011;40085;53.004;6.770;2022-10-26T17:23:15;2.75;;;2.08;;
54177;SDS011;40085;53.004;6.770;2022-10-26T17:25:41;9.18;;;2.75;;
54177;SDS011;40085;53.004;6.770;2022-10-26T17:28:07;4.07;;;2.20;;
54177;SDS011;40085;53.004;6.770;2022-10-26T17:30:33;3.20;;;2.47;;
54177;SDS011;40085;53.004;6.770;2022-10-26T17:33:00;2.75;;;2.05;;
54177;SDS011;40085;53.004;6.770;2022-10-26T17:35:26;3.15;;;2.22;;
54177;SDS011;40085;53.004;6.770;2022-10-26T17:37:52;3.05;;;2.25;;
54177;SDS011;40085;53.004;6.770;2022-10-26T17:40:18;3.97;;;2.20;;